createdAt,value
2018-05-12T00:01:32.443Z,97.10
2018-05-12T00:03:59.921Z,97.30
2018-05-12T00:06:27.343Z,97.50
2018-05-12T00:08:54.804Z,97.20
2018-05-12T00:11:22.245Z,97.30
2018-05-12T00:13:49.709Z,96.90
2018-05-12T00:16:17.160Z,96.90
2018-05-12T00:18:44.620Z,97.00
2018-05-12T00:21:12.093Z,97.00
2018-05-12T00:23:39.551Z,97.70
2018-05-12T00:26:07.035Z,97.70
2018-05-12T00:28:34.472Z,97.90
2018-05-12T00:31:01.965Z,98.00
2018-05-12T00:33:29.428Z,97.70
2018-05-12T00:35:56.880Z,97.70
2018-05-12T00:38:24.323Z,98.40
2018-05-12T00:40:51.797Z,98.60
2018-05-12T00:43:19.253Z,98.50
2018-05-12T00:45:46.713Z,98.90
2018-05-12T00:48:14.168Z,99.20
2018-05-12T00:50:41.632Z,99.20
2018-05-12T00:53:09.095Z,99.00
2018-05-12T00:55:36.555Z,98.50
2018-05-12T00:58:04.000Z,97.80
2018-05-12T01:00:31.444Z,97.80
2018-05-12T01:02:59.664Z,97.60
2018-05-12T01:05:27.147Z,97.60
2018-05-12T01:07:54.595Z,97.40
2018-05-12T01:10:22.067Z,97.70
2018-05-12T01:12:49.519Z,98.30
2018-05-12T01:15:17.134Z,98.10
2018-05-12T01:17:45.364Z,98.60
2018-05-12T01:20:12.816Z,98.40
2018-05-12T01:22:40.295Z,98.80
2018-05-12T01:25:07.747Z,98.90
2018-05-12T01:27:35.213Z,99.10
2018-05-12T01:30:02.660Z,99.10
2018-05-12T01:32:30.114Z,98.90
2018-05-12T01:34:57.562Z,99.00
2018-05-12T01:37:25.832Z,97.80
2018-05-12T01:39:53.273Z,97.80
2018-05-12T01:42:20.742Z,97.80
2018-05-12T01:44:48.195Z,98.00
2018-05-12T01:47:15.655Z,98.10
2018-05-12T01:49:43.104Z,98.00
2018-05-12T01:52:10.561Z,98.50
2018-05-12T01:54:38.018Z,98.00
2018-05-12T01:57:05.480Z,98.50
2018-05-12T01:59:32.940Z,98.40
2018-05-12T02:02:00.397Z,99.20
2018-05-12T02:04:27.858Z,99.80
2018-05-12T02:06:55.320Z,99.00
2018-05-12T02:09:22.760Z,98.50
2018-05-12T02:11:50.219Z,98.90
2018-05-12T02:14:18.432Z,99.20
2018-05-12T02:16:45.899Z,99.20
2018-05-12T02:19:13.355Z,99.30
2018-05-12T02:21:40.819Z,99.50
2018-05-12T02:24:08.275Z,99.50
2018-05-12T02:26:35.740Z,98.90
2018-05-12T02:29:03.202Z,99.00
2018-05-12T02:31:30.668Z,99.20
2018-05-12T02:33:58.149Z,99.30
2018-05-12T02:36:25.596Z,99.80
2018-05-12T02:38:53.065Z,99.30
2018-05-12T02:41:20.525Z,98.80
2018-05-12T02:43:47.994Z,99.00
2018-05-12T02:46:15.436Z,99.60
2018-05-12T02:48:42.900Z,99.90
2018-05-12T02:51:10.356Z,99.80
2018-05-12T02:53:37.825Z,99.70
2018-05-12T02:56:05.340Z,99.70
2018-05-12T02:58:33.312Z,99.90
2018-05-12T03:01:01.540Z,99.70
2018-05-12T03:03:29.014Z,99.70
2018-05-12T03:05:56.458Z,99.30
2018-05-12T03:08:23.914Z,98.60
2018-05-12T03:10:51.364Z,98.50
2018-05-12T03:13:19.678Z,99.00
2018-05-12T03:15:47.161Z,99.00
2018-05-12T03:18:14.648Z,99.10
2018-05-12T03:20:43.155Z,98.90
2018-05-12T03:23:11.388Z,98.70
2018-05-12T03:25:38.844Z,98.70
2018-05-12T03:28:06.312Z,98.70
2018-05-12T03:30:33.753Z,98.80
2018-05-12T03:33:01.212Z,98.80
2018-05-12T03:35:28.692Z,99.00
2018-05-12T03:37:56.194Z,99.10
2018-05-12T03:40:23.676Z,99.80
2018-05-12T03:42:51.898Z,99.90
2018-05-12T03:45:20.140Z,99.90
2018-05-12T03:47:48.364Z,99.60
2018-05-12T03:50:15.824Z,99.60
2018-05-12T03:52:43.288Z,99.80
2018-05-12T03:55:10.748Z,99.30
2018-05-12T03:57:38.209Z,99.00
2018-05-12T04:00:05.732Z,99.00
2018-05-12T04:02:33.116Z,98.90
2018-05-12T04:05:12.365Z,99.10
2018-05-12T04:07:51.762Z,98.90
2018-05-12T04:13:22.768Z,99.30
2018-05-12T04:15:50.223Z,99.10
2018-05-12T04:18:18.435Z,99.20
2018-05-12T04:20:46.656Z,99.20
2018-05-12T04:23:14.112Z,99.10
2018-05-12T04:25:41.568Z,99.40
2018-05-12T04:28:09.027Z,99.40
2018-05-12T04:30:36.479Z,99.10
2018-05-12T04:33:03.953Z,99.20
2018-05-12T04:35:31.404Z,99.10
2018-05-12T04:37:59.613Z,99.60
2018-05-12T04:40:27.067Z,99.60
2018-05-12T04:42:54.526Z,99.30
2018-05-12T04:45:21.962Z,99.20
2018-05-12T04:47:50.181Z,99.20
2018-05-12T04:50:17.627Z,99.20
2018-05-12T04:52:45.079Z,99.20
2018-05-12T04:55:12.568Z,99.30
2018-05-12T04:57:40.029Z,99.60
2018-05-12T05:00:07.477Z,99.30
2018-05-12T05:02:34.929Z,99.20
2018-05-12T05:05:02.391Z,99.30
2018-05-12T05:07:29.853Z,99.50
2018-05-12T05:09:57.316Z,99.60
2018-05-12T05:12:24.804Z,99.60
2018-05-12T05:14:52.253Z,99.60
2018-05-12T05:17:19.689Z,99.60
2018-05-12T05:19:47.908Z,99.80
2018-05-12T05:22:15.370Z,99.80
2018-05-12T05:24:42.816Z,99.80
2018-05-12T05:27:10.267Z,99.80
2018-05-12T05:29:37.741Z,99.90
2018-05-12T05:32:05.198Z,99.90
2018-05-12T05:34:32.640Z,99.80
2018-05-12T05:37:00.873Z,99.50
2018-05-12T05:39:28.319Z,99.40
2018-05-12T05:41:55.769Z,99.90
2018-05-12T05:44:23.231Z,99.40
2018-05-12T05:46:50.705Z,99.50
2018-05-12T05:49:18.145Z,99.70
2018-05-12T05:51:46.377Z,99.60
2018-05-12T05:54:13.824Z,99.60
2018-05-12T05:56:41.281Z,99.30
2018-05-12T05:59:08.733Z,99.10
2018-05-12T06:01:36.185Z,99.30
2018-05-12T06:04:03.645Z,98.80
2018-05-12T06:06:31.095Z,99.30
2018-05-12T06:08:58.543Z,98.90
2018-05-12T06:11:26.750Z,98.90
2018-05-12T06:13:54.200Z,98.90
2018-05-12T06:16:21.681Z,98.20
2018-05-12T06:18:49.125Z,98.30
2018-05-12T06:21:16.609Z,99.10
2018-05-12T06:23:44.049Z,98.90
2018-05-12T06:26:11.509Z,98.90
2018-05-12T06:28:38.963Z,98.80
2018-05-12T06:31:07.186Z,98.60
2018-05-12T06:33:34.635Z,98.60
2018-05-12T06:36:02.084Z,98.60
2018-05-12T06:38:29.534Z,98.80
2018-05-12T06:40:57.729Z,98.90
2018-05-12T06:43:25.176Z,98.90
2018-05-12T06:45:52.648Z,99.20
2018-05-12T06:48:20.851Z,99.20
2018-05-12T06:50:48.315Z,99.20
2018-05-12T06:53:15.785Z,99.10
2018-05-12T06:55:43.233Z,98.60
2018-05-12T06:58:10.684Z,98.70
2018-05-12T07:00:38.176Z,98.60
2018-05-12T07:03:05.638Z,98.30
2018-05-12T07:05:33.094Z,98.20
2018-05-12T07:08:00.565Z,98.00
2018-05-12T07:10:28.804Z,98.50
2018-05-12T07:12:56.289Z,98.50
2018-05-12T07:15:23.729Z,98.20
2018-05-12T07:17:51.185Z,97.90
2018-05-12T07:20:19.395Z,97.80
2018-05-12T07:22:46.861Z,97.80
2018-05-12T07:25:14.323Z,97.90
2018-05-12T07:27:41.778Z,98.30
2018-05-12T07:30:09.222Z,98.10
2018-05-12T07:32:36.673Z,97.80
2018-05-12T07:35:04.889Z,98.30
2018-05-12T07:37:32.340Z,98.30
2018-05-12T07:39:59.818Z,97.20
2018-05-12T07:42:27.265Z,97.60
2018-05-12T07:44:54.728Z,97.40
2018-05-12T07:47:22.190Z,97.20
2018-05-12T07:49:49.648Z,96.90
2018-05-12T07:52:17.095Z,96.80
2018-05-12T07:54:44.552Z,97.10
2018-05-12T07:57:12.755Z,96.90
2018-05-12T07:59:40.216Z,96.90
2018-05-12T08:02:07.660Z,97.10
2018-05-12T08:04:35.124Z,96.70
2018-05-12T08:07:02.581Z,97.30
2018-05-12T08:09:30.811Z,96.80
2018-05-12T08:11:58.277Z,96.80
2018-05-12T08:14:25.732Z,96.70
2018-05-12T08:16:53.180Z,96.50
2018-05-12T08:19:20.664Z,96.50
2018-05-12T08:21:48.117Z,96.70
2018-05-12T08:24:15.564Z,96.90
2018-05-12T08:26:43.022Z,97.80
2018-05-12T08:29:10.496Z,96.70
2018-05-12T08:31:38.022Z,96.60
2018-05-12T08:34:05.406Z,96.50
2018-05-12T08:36:32.867Z,96.80
2018-05-12T08:39:00.335Z,97.00
2018-05-12T08:41:27.782Z,96.70
2018-05-12T08:43:55.254Z,96.80
2018-05-12T08:46:22.696Z,96.60
2018-05-12T08:48:50.921Z,96.10
2018-05-12T08:51:18.445Z,96.10
2018-05-12T08:53:45.924Z,96.10
2018-05-12T08:56:13.359Z,96.10
2018-05-12T08:58:41.590Z,95.40
2018-05-12T09:01:09.047Z,95.40
2018-05-12T09:03:36.503Z,95.60
2018-05-12T09:06:03.955Z,95.70
2018-05-12T09:08:31.413Z,95.40
2018-05-12T09:10:58.878Z,95.20
2018-05-12T09:13:26.320Z,94.90
2018-05-12T09:15:54.543Z,94.00
2018-05-12T09:18:22.765Z,93.90
2018-05-12T09:20:50.222Z,93.90
2018-05-12T09:23:17.675Z,93.40
2018-05-12T09:25:45.186Z,93.30
2018-05-12T09:28:12.626Z,93.50
2018-05-12T09:30:40.849Z,92.60
2018-05-12T09:33:08.296Z,92.60
2018-05-12T09:35:35.754Z,93.00
2018-05-12T09:38:03.216Z,93.10
2018-05-12T09:40:30.683Z,92.40
2018-05-12T09:42:58.134Z,93.00
2018-05-12T09:45:25.584Z,92.90
2018-05-12T09:47:53.028Z,92.90
2018-05-12T09:50:21.244Z,92.70
2018-05-12T09:52:48.704Z,92.50
2018-05-12T09:55:16.177Z,92.80
2018-05-12T09:57:43.833Z,92.80
2018-05-12T10:00:11.275Z,92.40
2018-05-12T10:02:39.497Z,92.50
2018-05-12T10:05:06.948Z,92.50
2018-05-12T10:07:34.414Z,92.40
2018-05-12T10:10:01.881Z,93.10
2018-05-12T10:12:29.335Z,92.30
2018-05-12T10:14:56.787Z,92.90
2018-05-12T10:17:24.245Z,92.20
2018-05-12T10:19:51.705Z,91.40
2018-05-12T10:22:19.149Z,91.00
2018-05-12T10:24:47.371Z,92.00
2018-05-12T10:27:14.834Z,92.00
2018-05-12T10:29:42.288Z,90.30
2018-05-12T10:32:09.749Z,90.80
2018-05-12T10:34:37.196Z,91.20
2018-05-12T10:37:04.670Z,91.00
2018-05-12T10:39:32.125Z,90.80
2018-05-12T10:41:59.596Z,91.20
2018-05-12T10:44:27.046Z,90.70
2018-05-12T10:46:54.541Z,90.80
2018-05-12T10:49:21.960Z,91.00
2018-05-12T10:51:50.188Z,90.30
2018-05-12T10:54:17.644Z,90.30
2018-05-12T10:56:45.108Z,90.40
2018-05-12T10:59:12.552Z,89.00
2018-05-12T11:01:40.059Z,89.40
2018-05-12T11:04:07.494Z,89.30
2018-05-12T11:06:34.948Z,89.00
2018-05-12T11:09:02.432Z,87.90
2018-05-12T11:11:29.904Z,87.10
2018-05-12T11:13:57.348Z,88.10
2018-05-12T11:16:24.815Z,87.60
2018-05-12T11:18:52.274Z,87.00
2018-05-12T11:21:19.731Z,85.40
2018-05-12T11:23:47.195Z,87.50
2018-05-12T11:26:14.644Z,88.70
2018-05-12T11:28:42.162Z,85.80
2018-05-12T11:31:10.395Z,84.30
2018-05-12T11:33:37.879Z,84.00
2018-05-12T11:36:05.344Z,87.10
2018-05-12T11:38:32.788Z,84.90
2018-05-12T11:41:00.253Z,85.70
2018-05-12T11:46:01.685Z,82.70
2018-05-12T11:48:29.133Z,83.90
2018-05-12T11:50:57.353Z,85.40
2018-05-12T11:53:24.803Z,85.40
2018-05-12T11:55:52.294Z,82.90
2018-05-12T11:58:19.815Z,82.00
2018-05-12T12:00:47.203Z,83.10
2018-05-12T12:03:14.664Z,84.30
2018-05-12T12:05:42.126Z,84.10
2018-05-12T12:08:09.587Z,82.50
2018-05-12T12:10:37.056Z,83.70
2018-05-12T12:13:04.523Z,82.30
2018-05-12T12:15:31.984Z,83.00
2018-05-12T12:17:59.462Z,82.20
2018-05-12T12:20:26.924Z,82.60
2018-05-12T12:22:54.398Z,82.50
2018-05-12T12:25:21.861Z,83.70
2018-05-12T12:27:49.328Z,82.80
2018-05-12T12:30:16.786Z,81.10
2018-05-12T12:32:44.253Z,82.30
2018-05-12T12:35:11.708Z,82.00
2018-05-12T12:37:39.185Z,80.50
2018-05-12T12:40:06.636Z,81.50
2018-05-12T12:42:34.112Z,80.00
2018-05-12T12:45:01.654Z,79.30
2018-05-12T12:47:29.049Z,82.70
2018-05-12T12:49:57.267Z,81.70
2018-05-12T12:52:24.725Z,81.60
2018-05-12T12:54:52.191Z,80.00
2018-05-12T12:57:19.668Z,79.20
2018-05-12T12:59:47.124Z,80.80
2018-05-12T13:02:14.607Z,80.00
2018-05-12T13:04:42.898Z,81.10
2018-05-12T13:07:11.036Z,79.00
2018-05-12T13:09:38.496Z,79.00
2018-05-12T13:12:05.960Z,78.10
2018-05-12T13:14:33.419Z,79.70
2018-05-12T13:17:00.889Z,78.50
2018-05-12T13:19:28.350Z,78.20
2018-05-12T13:21:55.820Z,79.10
2018-05-12T13:24:23.305Z,80.00
2018-05-12T13:26:50.762Z,77.30
2018-05-12T13:29:18.229Z,81.90
2018-05-12T13:31:45.700Z,82.00
2018-05-12T13:34:13.162Z,80.20
2018-05-12T13:36:40.611Z,79.90
2018-05-12T13:39:08.073Z,77.70
2018-05-12T13:41:35.536Z,79.70
2018-05-12T13:44:02.994Z,79.50
2018-05-12T13:46:30.433Z,77.60
2018-05-12T13:48:57.896Z,76.00
2018-05-12T13:51:25.354Z,77.10
2018-05-12T13:53:52.821Z,77.30
2018-05-12T13:56:20.279Z,75.40
2018-05-12T13:58:47.744Z,76.10
2018-05-12T14:01:15.216Z,76.90
2018-05-12T14:03:42.672Z,78.60
2018-05-12T14:06:10.136Z,77.30
2018-05-12T14:08:37.601Z,77.00
2018-05-12T14:11:05.060Z,75.90
2018-05-12T14:13:32.525Z,76.50
2018-05-12T14:15:59.991Z,76.30
2018-05-12T14:18:27.451Z,73.50
2018-05-12T14:20:54.932Z,72.70
2018-05-12T14:23:22.380Z,75.20
2018-05-12T14:25:49.837Z,77.10
2018-05-12T14:28:17.302Z,76.10
2018-05-12T14:30:44.757Z,72.90
2018-05-12T14:33:12.220Z,74.50
2018-05-12T14:35:40.700Z,74.70
2018-05-12T14:38:08.196Z,74.50
2018-05-12T14:40:35.998Z,73.50
2018-05-12T14:43:03.500Z,75.60
2018-05-12T14:45:30.972Z,75.80
2018-05-12T14:47:58.441Z,75.70
2018-05-12T14:50:25.919Z,74.20
2018-05-12T14:52:53.388Z,74.80
2018-05-12T14:55:20.863Z,73.60
2018-05-12T14:57:48.418Z,73.60
2018-05-12T15:00:16.556Z,74.70
2018-05-12T15:02:44.018Z,74.10
2018-05-12T15:05:11.487Z,75.00
2018-05-12T15:07:38.925Z,70.60
2018-05-12T15:10:06.380Z,71.50
2018-05-12T15:12:34.592Z,73.50
2018-05-12T15:15:02.073Z,73.50
2018-05-12T15:17:29.531Z,72.70
2018-05-12T15:19:56.993Z,72.40
2018-05-12T15:22:24.431Z,73.90
2018-05-12T15:24:51.896Z,72.80
2018-05-12T15:27:19.333Z,71.70
2018-05-12T15:29:47.564Z,71.60
2018-05-12T15:32:15.052Z,71.60
2018-05-12T15:34:42.515Z,74.10
2018-05-12T15:37:09.960Z,72.60
2018-05-12T15:39:37.416Z,71.50
2018-05-12T15:42:04.858Z,71.50
2018-05-12T15:44:32.304Z,72.40
2018-05-12T15:46:59.740Z,69.70
2018-05-12T15:49:27.964Z,70.90
2018-05-12T15:51:55.396Z,70.80
2018-05-12T15:54:22.880Z,70.10
2018-05-12T15:56:50.337Z,71.30
2018-05-12T15:59:17.800Z,72.00
2018-05-12T16:01:45.240Z,71.60
2018-05-12T16:04:13.478Z,71.20
2018-05-12T16:06:40.927Z,71.10
2018-05-12T16:09:08.364Z,70.90
2018-05-12T16:11:35.807Z,72.10
2018-05-12T16:14:04.039Z,70.60
2018-05-12T16:16:31.474Z,70.50
2018-05-12T16:18:58.918Z,69.20
2018-05-12T16:21:26.372Z,70.00
2018-05-12T16:23:54.594Z,70.10
2018-05-12T16:26:22.044Z,70.10
2018-05-12T16:28:49.497Z,70.60
2018-05-12T16:31:17.026Z,70.30
2018-05-12T16:33:44.406Z,72.30
2018-05-12T16:36:12.653Z,74.10
2018-05-12T16:38:40.117Z,74.00
2018-05-12T16:41:07.567Z,72.90
2018-05-12T16:43:35.273Z,74.00
2018-05-12T16:46:03.518Z,74.40
2018-05-12T16:48:30.960Z,74.40
2018-05-12T16:50:58.522Z,73.90
2018-05-12T16:53:25.860Z,73.90
2018-05-12T16:55:53.325Z,73.90
2018-05-12T16:58:20.788Z,75.40
2018-05-12T17:03:38.971Z,77.20
2018-05-12T17:06:06.449Z,78.00
2018-05-12T17:08:33.904Z,78.00
2018-05-12T17:11:01.366Z,77.80
2018-05-12T17:13:28.835Z,77.90
2018-05-12T17:15:56.289Z,79.50
2018-05-12T17:18:23.768Z,79.50
2018-05-12T17:20:51.220Z,80.60
2018-05-12T17:23:18.757Z,80.60
2018-05-12T17:25:47.028Z,82.30
2018-05-12T17:28:14.521Z,82.30
2018-05-12T17:30:42.011Z,81.20
2018-05-12T17:33:10.248Z,80.20
2018-05-12T17:35:37.714Z,79.90
2018-05-12T17:38:05.208Z,80.90
2018-05-12T17:40:32.683Z,80.20
2018-05-12T17:43:00.905Z,82.20
2018-05-12T17:45:28.360Z,82.20
2018-05-12T17:47:55.827Z,82.90
2018-05-12T17:50:24.008Z,83.90
2018-05-12T17:52:51.466Z,83.80
2018-05-12T17:55:18.901Z,83.30
2018-05-12T17:57:47.123Z,82.70
2018-05-12T18:00:14.602Z,82.60
2018-05-12T18:02:42.057Z,82.60
2018-05-12T18:05:09.520Z,82.90
2018-05-12T18:07:36.992Z,83.00
2018-05-12T18:10:04.450Z,83.20
2018-05-12T18:12:31.911Z,84.60
2018-05-12T18:14:59.369Z,84.60
2018-05-12T18:17:26.949Z,84.80
2018-05-12T18:19:55.036Z,84.30
2018-05-12T18:22:22.497Z,84.30
2018-05-12T18:24:49.969Z,84.60
2018-05-12T18:27:17.480Z,84.50
2018-05-12T18:29:44.925Z,85.10
2018-05-12T18:32:12.373Z,85.10
2018-05-12T18:34:40.577Z,84.90
2018-05-12T18:37:08.023Z,84.90
2018-05-12T18:39:35.460Z,85.00
2018-05-12T18:42:02.913Z,85.00
2018-05-12T18:44:30.364Z,85.30
2018-05-12T18:46:57.848Z,85.40
2018-05-12T18:49:26.069Z,87.10
2018-05-12T18:51:53.516Z,87.10
2018-05-12T18:54:20.968Z,87.40
2018-05-12T18:56:49.199Z,88.60
2018-05-12T18:59:16.639Z,88.60
2018-05-12T19:01:44.098Z,89.10
2018-05-12T19:04:11.560Z,89.30
2018-05-12T19:06:39.009Z,88.90
2018-05-12T19:09:06.468Z,88.70
2018-05-12T19:11:34.688Z,88.70
2018-05-12T19:14:02.162Z,88.60
2018-05-12T19:16:29.648Z,88.20
2018-05-12T19:18:57.897Z,88.40
2018-05-12T19:21:25.332Z,88.40
2018-05-12T19:23:52.797Z,88.80
2018-05-12T19:26:20.255Z,89.00
2018-05-12T19:28:47.719Z,89.10
2018-05-12T19:31:15.161Z,89.50
2018-05-12T19:33:43.368Z,89.00
2018-05-12T19:36:10.822Z,89.00
2018-05-12T19:38:38.283Z,88.20
2018-05-12T19:41:05.746Z,87.80
2018-05-12T19:43:33.215Z,88.20
2018-05-12T19:46:00.655Z,88.60
2018-05-12T19:48:28.115Z,89.20
2018-05-12T19:50:55.570Z,90.00
2018-05-12T19:53:23.780Z,89.50
2018-05-12T19:55:51.221Z,89.50
2018-05-12T19:58:18.680Z,88.80
2018-05-12T20:00:46.129Z,88.60
2018-05-12T20:03:13.573Z,88.50
2018-05-12T20:05:41.005Z,89.00
2018-05-12T20:08:08.444Z,89.20
2018-05-12T20:10:35.881Z,90.30
2018-05-12T20:13:04.099Z,90.10
2018-05-12T20:15:31.535Z,90.10
2018-05-12T20:17:58.991Z,90.60
2018-05-12T20:20:27.201Z,90.80
2018-05-12T20:22:54.653Z,90.80
2018-05-12T20:25:22.097Z,90.70
2018-05-12T20:27:50.354Z,91.00
2018-05-12T20:30:17.791Z,91.00
2018-05-12T20:32:45.253Z,91.00
2018-05-12T20:35:12.717Z,91.00
2018-05-12T20:37:40.168Z,91.20
2018-05-12T20:40:07.616Z,91.40
2018-05-12T20:42:35.078Z,91.40
2018-05-12T20:45:02.529Z,91.90
2018-05-12T20:47:29.976Z,92.50
2018-05-12T20:49:57.459Z,92.60
2018-05-12T20:52:24.925Z,92.50
2018-05-12T20:54:52.380Z,92.50
2018-05-12T20:57:19.823Z,92.50
2018-05-12T20:59:47.281Z,92.30
2018-05-12T21:02:15.596Z,92.60
2018-05-12T21:04:42.948Z,92.60
2018-05-12T21:07:10.406Z,92.70
2018-05-12T21:09:37.872Z,92.90
2018-05-12T21:12:05.331Z,92.60
2018-05-12T21:14:32.793Z,92.40
2018-05-12T21:17:00.254Z,92.90
2018-05-12T21:19:27.694Z,93.10
2018-05-12T21:21:55.921Z,93.90
2018-05-12T21:24:23.389Z,93.50
2018-05-12T21:26:50.942Z,93.50
2018-05-12T21:29:18.367Z,93.20
2018-05-12T21:31:45.768Z,93.30
2018-05-12T21:34:13.221Z,93.50
2018-05-12T21:36:40.681Z,93.90
2018-05-12T21:39:08.139Z,94.10
2018-05-12T21:41:35.580Z,94.20
2018-05-12T21:44:03.795Z,94.20
2018-05-12T21:46:31.258Z,94.20
2018-05-12T21:48:58.707Z,94.20
2018-05-12T21:51:26.168Z,94.30
2018-05-12T21:53:53.628Z,94.20
2018-05-12T21:56:21.088Z,94.40
2018-05-12T21:58:48.554Z,94.20
2018-05-12T22:01:16.008Z,94.40
2018-05-12T22:03:43.446Z,94.20
2018-05-12T22:06:11.659Z,94.10
2018-05-12T22:08:39.089Z,94.10
2018-05-12T22:11:07.314Z,94.20
2018-05-12T22:13:34.759Z,94.20
2018-05-12T22:16:02.240Z,94.40
2018-05-12T22:18:29.706Z,94.20
2018-05-12T22:20:57.148Z,94.40
2018-05-12T22:23:24.584Z,94.20
2018-05-12T22:25:52.805Z,93.40
2018-05-12T22:28:20.247Z,93.40
2018-05-12T22:30:47.702Z,92.90
2018-05-12T22:33:15.164Z,92.40
2018-05-12T22:35:42.628Z,92.50
2018-05-12T22:38:10.070Z,92.40
2018-05-12T22:40:38.272Z,92.80
2018-05-12T22:43:05.720Z,92.50
2018-05-12T22:45:33.920Z,92.30
2018-05-12T22:48:01.370Z,92.30
2018-05-12T22:50:28.820Z,92.70
2018-05-12T22:52:57.048Z,92.20
2018-05-12T22:55:24.503Z,92.20
2018-05-12T22:57:51.963Z,91.90
2018-05-12T23:00:25.769Z,91.30
2018-05-12T23:02:54.923Z,91.40
2018-05-12T23:05:22.371Z,91.50
2018-05-12T23:07:52.747Z,91.50
2018-05-12T23:10:20.175Z,91.70
2018-05-12T23:12:47.631Z,91.50
2018-05-12T23:15:15.096Z,91.40
2018-05-12T23:17:42.556Z,91.60
2018-05-12T23:20:09.999Z,91.70
2018-05-12T23:22:37.445Z,91.70
2018-05-12T23:25:04.895Z,91.50
2018-05-12T23:27:33.098Z,91.70
2018-05-12T23:30:00.525Z,91.50
2018-05-12T23:32:28.741Z,91.70
2018-05-12T23:34:56.176Z,91.70
2018-05-12T23:37:24.394Z,92.20
2018-05-12T23:39:51.844Z,92.20
2018-05-12T23:42:19.339Z,91.80
2018-05-12T23:44:46.749Z,92.00
2018-05-12T23:47:14.204Z,91.90
2018-05-12T23:49:42.408Z,91.80
2018-05-12T23:52:09.869Z,91.80
2018-05-12T23:54:37.339Z,92.20
2018-05-12T23:57:04.898Z,92.40
2018-05-12T23:59:32.319Z,92.30
